KRHV 151847Z 13007KT 10SM BKN035 BKN090 13/06 A3000